createdAt,value
2023-01-17T00:01:15.029Z,81.62
2023-01-17T00:03:18.182Z,81.49
2023-01-17T00:05:38.709Z,81.73
2023-01-17T00:07:59.420Z,81.78
2023-01-17T00:10:07.551Z,81.66
2023-01-17T00:12:11.072Z,81.84
2023-01-17T00:14:15.496Z,82.00
2023-01-17T00:16:18.692Z,81.81
2023-01-17T00:18:21.793Z,81.92
2023-01-17T00:20:43.492Z,81.90
2023-01-17T00:23:03.535Z,81.90
2023-01-17T00:25:24.484Z,82.05
2023-01-17T00:27:26.461Z,81.86
2023-01-17T00:29:29.789Z,82.07
2023-01-17T00:31:31.866Z,82.05
2023-01-17T00:33:34.427Z,82.00
2023-01-17T00:35:36.380Z,82.02
2023-01-17T00:37:38.291Z,82.15
2023-01-17T00:39:40.267Z,82.12
2023-01-17T00:41:42.170Z,81.92
2023-01-17T00:44:02.712Z,81.86
2023-01-17T00:46:25.695Z,81.55
2023-01-17T00:48:46.170Z,81.45
2023-01-17T00:51:06.664Z,81.40
2023-01-17T00:53:27.254Z,81.42
2023-01-17T00:55:47.783Z,81.47
2023-01-17T00:58:08.319Z,81.53
2023-01-17T01:00:29.966Z,81.54
2023-01-17T01:02:52.138Z,81.73
2023-01-17T01:05:12.302Z,81.78
2023-01-17T01:07:33.124Z,81.80
2023-01-17T01:09:53.546Z,81.92
2023-01-17T01:12:14.099Z,81.75
2023-01-17T01:14:34.579Z,81.81
2023-01-17T01:16:55.082Z,81.84
2023-01-17T01:19:17.514Z,82.06
2023-01-17T01:21:38.179Z,81.98
2023-01-17T01:23:58.801Z,82.18
2023-01-17T01:26:21.452Z,82.08
2023-01-17T01:28:42.276Z,82.23
2023-01-17T01:31:02.858Z,82.43
2023-01-17T01:33:20.391Z,82.67
2023-01-17T01:35:25.766Z,82.64
2023-01-17T01:37:28.924Z,82.66
2023-01-17T01:39:32.191Z,82.81
2023-01-17T01:41:35.375Z,82.74
2023-01-17T01:43:45.325Z,82.94
2023-01-17T01:45:53.357Z,82.94
2023-01-17T01:48:02.741Z,82.81
2023-01-17T01:50:10.356Z,82.91
2023-01-17T01:52:15.284Z,83.05
2023-01-17T01:54:23.711Z,83.16
2023-01-17T01:56:29.032Z,82.95
2023-01-17T01:58:36.927Z,83.21
2023-01-17T02:00:41.672Z,83.02
2023-01-17T02:02:49.861Z,83.15
2023-01-17T02:04:53.712Z,83.29
2023-01-17T02:07:06.678Z,83.09
2023-01-17T02:09:13.592Z,83.24
2023-01-17T02:11:16.890Z,83.42
2023-01-17T02:13:22.127Z,83.26
2023-01-17T02:15:31.668Z,83.41
2023-01-17T02:17:48.571Z,83.36
2023-01-17T02:20:26.756Z,83.63
2023-01-17T02:23:07.004Z,83.50
2023-01-17T02:25:33.419Z,83.61
2023-01-17T02:27:55.002Z,83.61
2023-01-17T02:30:15.739Z,83.68
2023-01-17T02:32:33.106Z,83.64
2023-01-17T02:34:43.324Z,83.87
2023-01-17T02:36:52.972Z,83.80
2023-01-17T02:39:05.363Z,83.78
2023-01-17T02:41:15.120Z,83.79
2023-01-17T02:43:21.368Z,83.92
2023-01-17T02:45:24.574Z,83.66
2023-01-17T02:47:31.713Z,83.71
2023-01-17T02:49:34.883Z,84.01
2023-01-17T02:52:02.500Z,84.06
2023-01-17T02:54:22.979Z,84.04
2023-01-17T02:56:45.919Z,83.96
2023-01-17T02:59:07.546Z,84.07
2023-01-17T03:01:17.385Z,84.13
2023-01-17T03:03:31.034Z,84.22
2023-01-17T03:05:41.477Z,84.18
2023-01-17T03:07:46.730Z,84.28
2023-01-17T03:09:54.586Z,84.28
2023-01-17T03:11:59.688Z,84.24
2023-01-17T03:14:03.162Z,84.17
2023-01-17T03:16:11.921Z,84.65
2023-01-17T03:18:17.410Z,84.38
2023-01-17T03:20:22.740Z,84.32
2023-01-17T03:22:26.150Z,84.32
2023-01-17T03:24:29.727Z,84.42
2023-01-17T03:26:32.913Z,84.46
2023-01-17T03:28:36.112Z,84.51
2023-01-17T03:30:39.371Z,84.74
2023-01-17T03:32:42.709Z,84.82
2023-01-17T03:34:46.018Z,84.77
2023-01-17T03:36:50.655Z,84.87
2023-01-17T03:38:53.845Z,84.75
2023-01-17T03:40:57.063Z,84.78
2023-01-17T03:43:00.275Z,84.87
2023-01-17T03:45:03.521Z,84.98
2023-01-17T03:47:07.073Z,84.98
2023-01-17T03:49:11.243Z,85.08
2023-01-17T03:51:14.471Z,85.00
2023-01-17T03:53:19.093Z,85.06
2023-01-17T03:55:22.382Z,84.94
2023-01-17T03:57:25.668Z,85.14
2023-01-17T03:59:28.986Z,85.12
2023-01-17T04:01:32.423Z,85.05
2023-01-17T04:03:35.846Z,85.09
2023-01-17T04:05:39.071Z,85.08
2023-01-17T04:07:42.719Z,85.13
2023-01-17T04:09:47.340Z,85.15
2023-01-17T04:11:51.076Z,85.08
2023-01-17T04:13:55.355Z,85.02
2023-01-17T04:15:58.698Z,85.05
2023-01-17T04:18:02.173Z,84.88
2023-01-17T04:20:06.416Z,84.60
2023-01-17T04:22:09.675Z,84.42
2023-01-17T04:24:12.983Z,84.38
2023-01-17T04:26:17.951Z,84.26
2023-01-17T04:28:21.173Z,84.33
2023-01-17T04:30:24.428Z,84.24
2023-01-17T04:32:29.337Z,84.35
2023-01-17T04:34:32.604Z,84.43
2023-01-17T04:36:35.811Z,84.32
2023-01-17T04:38:39.116Z,84.43
2023-01-17T04:40:42.327Z,84.43
2023-01-17T04:42:47.212Z,84.41
2023-01-17T04:44:50.408Z,84.41
2023-01-17T04:46:53.636Z,84.46
2023-01-17T04:48:57.022Z,84.36
2023-01-17T04:51:01.687Z,84.18
2023-01-17T04:53:04.960Z,84.13
2023-01-17T04:55:09.304Z,84.37
2023-01-17T04:57:12.522Z,84.19
2023-01-17T04:59:17.245Z,83.83
2023-01-17T05:01:20.900Z,84.31
2023-01-17T05:03:25.168Z,84.50
2023-01-17T05:05:28.415Z,84.53
2023-01-17T05:07:31.647Z,84.65
2023-01-17T05:09:34.851Z,84.96
2023-01-17T05:11:38.108Z,85.06
2023-01-17T05:13:41.383Z,85.14
2023-01-17T05:15:46.605Z,85.18
2023-01-17T05:17:51.754Z,85.33
2023-01-17T05:19:55.000Z,85.51
2023-01-17T05:22:03.761Z,85.69
2023-01-17T05:24:07.916Z,85.68
2023-01-17T05:26:11.130Z,85.74
2023-01-17T05:28:14.588Z,86.17
2023-01-17T05:30:19.090Z,86.05
2023-01-17T05:32:23.688Z,86.20
2023-01-17T05:34:26.953Z,86.31
2023-01-17T05:36:30.322Z,86.36
2023-01-17T05:38:33.558Z,86.51
2023-01-17T05:40:36.889Z,86.37
2023-01-17T05:42:40.109Z,86.50
2023-01-17T05:44:43.306Z,86.52
2023-01-17T05:46:46.663Z,86.66
2023-01-17T05:48:51.227Z,86.54
2023-01-17T05:50:54.538Z,86.27
2023-01-17T05:53:00.156Z,86.14
2023-01-17T05:55:03.337Z,86.02
2023-01-17T05:57:06.557Z,85.80
2023-01-17T05:59:10.417Z,85.89
2023-01-17T06:01:14.221Z,85.95
2023-01-17T06:03:17.490Z,85.94
2023-01-17T06:05:22.870Z,85.99
2023-01-17T06:07:26.065Z,85.91
2023-01-17T06:09:29.249Z,86.03
2023-01-17T06:11:32.492Z,85.88
2023-01-17T06:13:35.690Z,85.95
2023-01-17T06:15:39.440Z,85.96
2023-01-17T06:17:43.198Z,86.08
2023-01-17T06:19:46.620Z,85.94
2023-01-17T06:21:51.181Z,86.09
2023-01-17T06:23:56.171Z,86.18
2023-01-17T06:26:02.746Z,86.09
2023-01-17T06:28:07.340Z,86.07
2023-01-17T06:30:11.728Z,86.21
2023-01-17T06:32:14.896Z,86.18
2023-01-17T06:34:18.149Z,86.11
2023-01-17T06:36:21.217Z,86.00
2023-01-17T06:38:27.287Z,86.06
2023-01-17T06:40:30.686Z,85.92
2023-01-17T06:42:33.855Z,86.03
2023-01-17T06:44:37.101Z,86.08
2023-01-17T06:46:40.880Z,86.05
2023-01-17T06:48:44.053Z,86.08
2023-01-17T06:50:49.840Z,86.09
2023-01-17T06:52:56.625Z,86.27
2023-01-17T06:55:01.349Z,86.31
2023-01-17T06:57:04.616Z,86.28
2023-01-17T06:59:07.916Z,86.21
2023-01-17T07:01:13.138Z,86.05
2023-01-17T07:03:21.034Z,86.15
2023-01-17T07:05:24.386Z,86.34
2023-01-17T07:07:27.531Z,86.05
2023-01-17T07:09:30.663Z,85.99
2023-01-17T07:11:35.215Z,86.04
2023-01-17T07:13:39.458Z,85.79
2023-01-17T07:15:42.661Z,85.90
2023-01-17T07:17:45.828Z,85.73
2023-01-17T07:19:48.938Z,85.70
2023-01-17T07:21:52.374Z,85.68
2023-01-17T07:23:55.794Z,85.67
2023-01-17T07:26:00.467Z,85.44
2023-01-17T07:28:05.321Z,85.56
2023-01-17T07:30:10.077Z,85.43
2023-01-17T07:32:13.239Z,85.48
2023-01-17T07:34:16.484Z,85.50
2023-01-17T07:36:19.703Z,85.52
2023-01-17T07:38:22.890Z,85.34
2023-01-17T07:40:27.153Z,85.25
2023-01-17T07:42:30.431Z,85.28
2023-01-17T07:44:35.016Z,85.22
2023-01-17T07:46:38.333Z,85.22
2023-01-17T07:48:41.478Z,85.15
2023-01-17T07:50:45.187Z,85.11
2023-01-17T07:52:50.710Z,85.28
2023-01-17T07:54:54.014Z,85.21
2023-01-17T07:56:57.168Z,85.07
2023-01-17T07:59:01.898Z,85.20
2023-01-17T08:01:10.375Z,85.23
2023-01-17T08:03:15.553Z,85.02
2023-01-17T08:05:18.782Z,85.25
2023-01-17T08:07:22.224Z,84.90
2023-01-17T08:09:25.523Z,84.93
2023-01-17T08:11:28.795Z,85.10
2023-01-17T08:13:32.081Z,84.97
2023-01-17T08:15:35.230Z,85.16
2023-01-17T08:17:39.887Z,85.30
2023-01-17T08:19:43.365Z,85.23
2023-01-17T08:21:46.537Z,85.41
2023-01-17T08:23:50.366Z,85.37
2023-01-17T08:25:53.496Z,85.32
2023-01-17T08:27:58.604Z,85.66
2023-01-17T08:30:02.693Z,85.67
2023-01-17T08:32:06.748Z,85.48
2023-01-17T08:34:11.321Z,85.43
2023-01-17T08:36:14.515Z,85.74
2023-01-17T08:38:17.697Z,85.72
2023-01-17T08:40:21.437Z,85.81
2023-01-17T08:42:24.703Z,85.83
2023-01-17T08:44:27.930Z,85.71
2023-01-17T08:46:32.864Z,85.80
2023-01-17T08:48:36.127Z,86.03
2023-01-17T08:50:40.784Z,85.91
2023-01-17T08:52:43.922Z,85.83
2023-01-17T08:54:47.789Z,86.06
2023-01-17T08:56:52.831Z,85.82
2023-01-17T08:58:56.063Z,85.91
2023-01-17T09:01:12.978Z,86.00
2023-01-17T09:03:25.669Z,85.85
2023-01-17T09:05:29.887Z,85.60
2023-01-17T09:07:34.748Z,85.52
2023-01-17T09:09:37.908Z,85.29
2023-01-17T09:11:41.116Z,85.47
2023-01-17T09:13:44.746Z,85.52
2023-01-17T09:15:47.966Z,85.57
2023-01-17T09:17:51.168Z,85.56
2023-01-17T09:19:54.859Z,85.64
2023-01-17T09:21:59.284Z,85.65
2023-01-17T09:24:04.352Z,85.62
2023-01-17T09:26:07.922Z,85.56
2023-01-17T09:28:12.305Z,85.58
2023-01-17T09:30:17.293Z,85.32
2023-01-17T09:32:26.377Z,85.34
2023-01-17T09:34:30.520Z,85.09
2023-01-17T09:36:34.033Z,84.98
2023-01-17T09:38:37.925Z,84.79
2023-01-17T09:40:46.953Z,84.49
2023-01-17T09:42:53.240Z,84.17
2023-01-17T09:44:57.260Z,84.01
2023-01-17T09:47:07.012Z,84.02
2023-01-17T09:49:16.275Z,84.21
2023-01-17T09:51:24.233Z,84.39
2023-01-17T09:53:35.399Z,84.72
2023-01-17T09:55:43.899Z,84.74
2023-01-17T09:58:00.240Z,84.84
2023-01-17T10:00:13.713Z,84.86
2023-01-17T10:02:40.022Z,85.04
2023-01-17T10:04:57.311Z,84.98
2023-01-17T10:07:14.438Z,85.13
2023-01-17T10:09:30.665Z,85.36
2023-01-17T10:11:50.289Z,85.30
2023-01-17T10:14:10.107Z,85.43
2023-01-17T10:16:24.929Z,85.44
2023-01-17T10:19:07.796Z,85.65
2023-01-17T10:21:17.950Z,85.50
2023-01-17T10:23:47.770Z,85.54
2023-01-17T10:25:52.511Z,85.39
2023-01-17T10:27:58.928Z,85.19
2023-01-17T10:30:14.255Z,85.07
2023-01-17T10:32:17.606Z,84.79
2023-01-17T10:34:24.711Z,84.44
2023-01-17T10:36:31.029Z,84.13
2023-01-17T10:38:36.671Z,83.45
2023-01-17T10:40:43.922Z,83.51
2023-01-17T10:42:53.174Z,83.25
2023-01-17T10:45:05.347Z,83.07
2023-01-17T10:47:15.856Z,82.47
2023-01-17T10:49:21.936Z,82.25
2023-01-17T10:52:00.909Z,81.71
2023-01-17T10:54:14.403Z,81.38
2023-01-17T10:56:19.685Z,81.07
2023-01-17T10:58:23.040Z,79.89
2023-01-17T11:00:47.603Z,79.97
2023-01-17T11:02:53.185Z,79.78
2023-01-17T11:04:57.202Z,79.47
2023-01-17T11:07:15.528Z,79.19
2023-01-17T11:09:18.657Z,79.07
2023-01-17T11:11:24.525Z,78.61
2023-01-17T11:13:34.309Z,78.06
2023-01-17T11:15:41.996Z,77.99
2023-01-17T11:17:49.997Z,77.82
2023-01-17T11:19:55.398Z,77.61
2023-01-17T11:22:02.782Z,77.61
2023-01-17T11:24:12.480Z,77.26
2023-01-17T11:26:25.835Z,76.15
2023-01-17T11:28:31.358Z,75.81
2023-01-17T11:30:35.046Z,75.31
2023-01-17T11:32:38.227Z,75.10
2023-01-17T11:34:41.430Z,74.97
2023-01-17T11:36:46.340Z,74.82
2023-01-17T11:38:57.406Z,74.77
2023-01-17T11:41:24.716Z,74.60
2023-01-17T11:43:28.890Z,74.39
2023-01-17T11:45:34.137Z,73.58
2023-01-17T11:47:38.435Z,73.58
2023-01-17T11:49:42.962Z,73.39
2023-01-17T11:51:47.751Z,73.09
2023-01-17T11:53:50.929Z,73.22
2023-01-17T11:56:00.420Z,72.50
2023-01-17T11:58:03.828Z,71.76
2023-01-17T12:00:20.687Z,70.44
2023-01-17T12:02:44.394Z,71.00
2023-01-17T12:04:55.176Z,71.36
2023-01-17T12:07:24.954Z,71.11
2023-01-17T12:09:36.817Z,70.83
2023-01-17T12:12:05.317Z,70.62
2023-01-17T12:14:20.618Z,70.63
2023-01-17T12:16:33.530Z,70.99
2023-01-17T12:18:43.276Z,70.28
2023-01-17T12:20:59.424Z,69.75
2023-01-17T12:23:21.823Z,70.22
2023-01-17T12:25:33.180Z,70.42
2023-01-17T12:27:45.005Z,70.34
2023-01-17T12:29:58.865Z,70.49
2023-01-17T12:32:17.837Z,70.04
2023-01-17T12:34:27.339Z,69.91
2023-01-17T12:36:43.518Z,69.77
2023-01-17T12:38:49.843Z,70.18
2023-01-17T12:41:00.038Z,70.16
2023-01-17T12:43:09.008Z,69.99
2023-01-17T12:45:21.476Z,69.94
2023-01-17T12:47:24.674Z,69.71
2023-01-17T12:49:42.092Z,69.89
2023-01-17T12:51:50.183Z,70.02
2023-01-17T12:54:00.426Z,69.46
2023-01-17T12:56:10.563Z,68.72
2023-01-17T12:58:17.601Z,68.54
2023-01-17T13:00:23.687Z,68.28
2023-01-17T13:02:36.381Z,68.41
2023-01-17T13:04:58.069Z,68.40
2023-01-17T13:07:13.849Z,68.58
2023-01-17T13:09:22.801Z,68.33
2023-01-17T13:11:33.588Z,68.23
2023-01-17T13:13:36.884Z,68.77
2023-01-17T13:15:41.772Z,68.46
2023-01-17T13:17:49.513Z,67.75
2023-01-17T13:19:58.778Z,67.56
2023-01-17T13:22:05.619Z,67.17
2023-01-17T13:24:23.299Z,66.97
2023-01-17T13:26:43.726Z,67.35
2023-01-17T13:28:55.085Z,66.93
2023-01-17T13:31:24.365Z,65.76
2023-01-17T13:33:38.868Z,64.95
2023-01-17T13:35:54.653Z,63.92
2023-01-17T13:38:12.797Z,63.33
2023-01-17T13:40:35.230Z,63.43
2023-01-17T13:42:51.770Z,63.49
2023-01-17T13:44:54.955Z,63.41
2023-01-17T13:47:04.257Z,63.70
2023-01-17T13:49:23.524Z,64.13
2023-01-17T13:52:05.389Z,64.70
2023-01-17T13:54:08.958Z,65.19
2023-01-17T13:56:15.218Z,65.71
2023-01-17T13:58:30.986Z,66.05
2023-01-17T14:00:51.722Z,66.28
2023-01-17T14:02:55.691Z,66.93
2023-01-17T14:05:11.360Z,67.23
2023-01-17T14:07:26.335Z,67.26
2023-01-17T14:09:38.762Z,67.39
2023-01-17T14:12:05.158Z,67.50
2023-01-17T14:14:45.560Z,67.39
2023-01-17T14:16:48.747Z,67.25
2023-01-17T14:18:53.747Z,67.49
2023-01-17T14:21:09.969Z,67.68
2023-01-17T14:23:26.017Z,67.79
2023-01-17T14:25:31.192Z,67.80
2023-01-17T14:27:39.277Z,68.41
2023-01-17T14:29:49.388Z,68.44
2023-01-17T14:32:02.124Z,68.58
2023-01-17T14:34:13.927Z,68.44
2023-01-17T14:36:24.998Z,68.60
2023-01-17T14:38:29.938Z,68.46
2023-01-17T14:40:35.784Z,68.57
2023-01-17T14:42:40.439Z,68.40
2023-01-17T14:44:48.077Z,68.48
2023-01-17T14:46:52.271Z,68.39
2023-01-17T14:49:01.937Z,68.47
2023-01-17T14:51:14.521Z,68.24
2023-01-17T14:53:22.823Z,67.65
2023-01-17T14:55:27.807Z,67.50
2023-01-17T14:57:30.995Z,67.17
2023-01-17T14:59:35.569Z,66.67
2023-01-17T15:01:39.247Z,66.41
2023-01-17T15:03:45.917Z,66.54
2023-01-17T15:05:52.483Z,66.30
2023-01-17T15:07:58.710Z,66.61
2023-01-17T15:10:03.783Z,66.67
2023-01-17T15:12:11.564Z,66.40
2023-01-17T15:14:21.252Z,66.88
2023-01-17T15:16:27.979Z,66.90
2023-01-17T15:18:36.263Z,67.04
2023-01-17T15:20:40.349Z,67.14
2023-01-17T15:22:43.684Z,67.34
2023-01-17T15:24:48.211Z,67.27
2023-01-17T15:26:51.697Z,67.27
2023-01-17T15:29:01.330Z,67.31
2023-01-17T15:31:10.219Z,67.59
2023-01-17T15:33:20.830Z,67.49
2023-01-17T15:35:25.092Z,67.91
2023-01-17T15:37:32.532Z,68.04
2023-01-17T15:39:38.415Z,68.05
2023-01-17T15:41:41.684Z,68.20
2023-01-17T15:43:46.629Z,68.29
2023-01-17T15:45:57.161Z,68.56
2023-01-17T15:48:37.703Z,68.44
2023-01-17T15:50:41.348Z,68.56
2023-01-17T15:52:50.265Z,68.73
2023-01-17T15:54:55.399Z,68.78
2023-01-17T15:57:19.056Z,68.91
2023-01-17T15:59:29.864Z,69.04
2023-01-17T16:01:33.118Z,69.40
2023-01-17T16:03:38.034Z,69.33
2023-01-17T16:05:43.802Z,69.70
2023-01-17T16:07:47.125Z,69.71
2023-01-17T16:09:51.131Z,69.80
2023-01-17T16:11:54.285Z,69.94
2023-01-17T16:13:57.497Z,70.12
2023-01-17T16:16:14.883Z,70.42
2023-01-17T16:18:22.990Z,70.50
2023-01-17T16:20:32.815Z,70.60
2023-01-17T16:22:36.009Z,70.69
2023-01-17T16:24:39.468Z,71.05
2023-01-17T16:26:42.599Z,71.13
2023-01-17T16:28:46.122Z,71.27
2023-01-17T16:30:49.676Z,71.38
2023-01-17T16:32:53.376Z,71.51
2023-01-17T16:34:56.624Z,71.66
2023-01-17T16:37:01.190Z,71.78
2023-01-17T16:39:05.003Z,71.84
2023-01-17T16:41:08.258Z,72.24
2023-01-17T16:43:12.639Z,72.32
2023-01-17T16:45:16.903Z,72.48
2023-01-17T16:47:20.957Z,72.48
2023-01-17T16:49:24.100Z,72.71
2023-01-17T16:51:27.271Z,72.73
2023-01-17T16:53:31.809Z,72.74
2023-01-17T16:55:35.065Z,73.13
2023-01-17T16:57:38.236Z,73.14
2023-01-17T16:59:50.645Z,73.18
2023-01-17T17:01:54.976Z,73.22
2023-01-17T17:03:58.330Z,73.30
2023-01-17T17:06:02.468Z,73.43
2023-01-17T17:08:06.051Z,73.56
2023-01-17T17:10:11.629Z,73.53
2023-01-17T17:12:14.798Z,73.47
2023-01-17T17:14:18.019Z,73.58
2023-01-17T17:16:27.404Z,73.54
2023-01-17T17:18:30.558Z,73.72
2023-01-17T17:20:33.786Z,73.81
2023-01-17T17:22:37.039Z,73.84
2023-01-17T17:24:40.272Z,73.97
2023-01-17T17:26:45.398Z,73.95
2023-01-17T17:28:52.760Z,73.88
2023-01-17T17:31:03.541Z,74.08
2023-01-17T17:33:06.821Z,74.20
2023-01-17T17:35:10.650Z,74.30
2023-01-17T17:37:15.946Z,74.43
2023-01-17T17:39:19.132Z,74.51
2023-01-17T17:41:24.672Z,74.47
2023-01-17T17:43:29.209Z,74.41
2023-01-17T17:45:32.422Z,74.69
2023-01-17T17:47:35.786Z,74.69
2023-01-17T17:49:38.975Z,74.70
2023-01-17T17:51:42.458Z,74.81
2023-01-17T17:53:45.975Z,74.89
2023-01-17T17:55:49.199Z,75.16
2023-01-17T17:57:52.566Z,75.13
2023-01-17T17:59:59.563Z,75.35
2023-01-17T18:02:02.857Z,75.58
2023-01-17T18:04:07.458Z,75.68
2023-01-17T18:06:13.038Z,75.90
2023-01-17T18:08:16.160Z,75.93
2023-01-17T18:10:19.465Z,76.14
2023-01-17T18:12:22.721Z,76.29
2023-01-17T18:14:25.992Z,76.30
2023-01-17T18:16:33.011Z,76.58
2023-01-17T18:18:38.008Z,76.91
2023-01-17T18:20:41.278Z,76.89
2023-01-17T18:22:44.476Z,76.96
2023-01-17T18:24:47.658Z,77.17
2023-01-17T18:26:52.431Z,77.05
2023-01-17T18:28:57.131Z,77.26
2023-01-17T18:31:06.682Z,77.34
2023-01-17T18:33:13.235Z,77.52
2023-01-17T18:35:16.522Z,77.42
2023-01-17T18:37:19.862Z,77.50
2023-01-17T18:39:25.760Z,77.57
2023-01-17T18:41:30.896Z,77.51
2023-01-17T18:43:34.409Z,77.67
2023-01-17T18:45:37.746Z,77.65
2023-01-17T18:47:40.962Z,77.81
2023-01-17T18:49:45.561Z,77.72
2023-01-17T18:51:51.131Z,77.84
2023-01-17T18:53:54.931Z,77.77
2023-01-17T18:56:00.114Z,78.06
2023-01-17T18:58:03.283Z,78.08
2023-01-17T19:00:07.575Z,78.08
2023-01-17T19:02:10.834Z,78.18
2023-01-17T19:04:15.652Z,78.15
2023-01-17T19:06:22.736Z,78.14
2023-01-17T19:08:25.876Z,78.12
2023-01-17T19:10:28.982Z,78.09
2023-01-17T19:12:32.182Z,78.22
2023-01-17T19:14:35.434Z,78.33
2023-01-17T19:16:41.436Z,78.22
2023-01-17T19:18:44.645Z,78.28
2023-01-17T19:20:47.883Z,78.51
2023-01-17T19:22:52.679Z,78.46
2023-01-17T19:24:55.825Z,78.39
2023-01-17T19:26:58.978Z,78.38
2023-01-17T19:29:03.670Z,78.55
2023-01-17T19:31:08.960Z,78.55
2023-01-17T19:33:12.124Z,78.37
2023-01-17T19:35:15.971Z,78.50
2023-01-17T19:37:19.181Z,78.52
2023-01-17T19:39:25.486Z,78.66
2023-01-17T19:41:30.383Z,78.69
2023-01-17T19:43:34.621Z,78.72
2023-01-17T19:45:37.875Z,78.81
2023-01-17T19:47:41.409Z,78.72
2023-01-17T19:49:44.564Z,78.92
2023-01-17T19:51:49.522Z,78.81
2023-01-17T19:53:53.574Z,78.85
2023-01-17T19:55:58.152Z,78.88
2023-01-17T19:58:01.357Z,78.87
2023-01-17T20:00:08.373Z,78.88
2023-01-17T20:02:15.773Z,78.88
2023-01-17T20:04:19.149Z,79.02
2023-01-17T20:06:24.236Z,79.01
2023-01-17T20:08:27.434Z,78.92
2023-01-17T20:10:31.239Z,78.98
2023-01-17T20:12:35.799Z,78.93
2023-01-17T20:14:38.960Z,78.98
2023-01-17T20:16:43.506Z,79.09
2023-01-17T20:18:46.726Z,79.02
2023-01-17T20:20:57.074Z,78.95
2023-01-17T20:23:01.393Z,78.79
2023-01-17T20:25:04.730Z,78.98
2023-01-17T20:27:07.888Z,79.00
2023-01-17T20:29:15.457Z,78.92
2023-01-17T20:31:20.939Z,78.84
2023-01-17T20:33:24.538Z,78.94
2023-01-17T20:35:29.294Z,78.96
2023-01-17T20:37:32.527Z,78.91
2023-01-17T20:39:35.692Z,78.95
2023-01-17T20:41:40.839Z,78.84
2023-01-17T20:43:44.801Z,78.95
2023-01-17T20:45:55.568Z,79.11
2023-01-17T20:47:59.117Z,78.95
2023-01-17T20:50:04.431Z,78.79
2023-01-17T20:52:07.850Z,78.63
2023-01-17T20:54:14.434Z,78.89
2023-01-17T20:56:18.114Z,78.88
2023-01-17T20:58:21.793Z,78.80
2023-01-17T21:00:25.330Z,78.74
2023-01-17T21:02:29.990Z,78.72
2023-01-17T21:04:33.175Z,78.64
2023-01-17T21:06:36.861Z,78.48
2023-01-17T21:08:41.749Z,78.67
2023-01-17T21:10:48.238Z,78.63
2023-01-17T21:12:51.529Z,78.58
2023-01-17T21:14:54.812Z,78.59
2023-01-17T21:16:58.100Z,78.56
2023-01-17T21:19:03.185Z,78.66
2023-01-17T21:21:08.420Z,78.72
2023-01-17T21:23:17.990Z,78.72
2023-01-17T21:25:21.282Z,78.67
2023-01-17T21:27:24.513Z,78.68
2023-01-17T21:29:29.161Z,78.66
2023-01-17T21:31:34.816Z,78.67
2023-01-17T21:33:38.055Z,78.56
2023-01-17T21:35:42.784Z,78.57
2023-01-17T21:37:51.948Z,78.35
2023-01-17T21:39:56.958Z,78.56
2023-01-17T21:42:00.167Z,78.44
2023-01-17T21:44:07.903Z,78.62
2023-01-17T21:46:11.165Z,78.45
2023-01-17T21:48:14.688Z,78.57
2023-01-17T21:50:32.449Z,78.54
2023-01-17T21:52:37.792Z,78.67
2023-01-17T21:54:58.755Z,78.41
2023-01-17T21:57:19.291Z,78.69
2023-01-17T21:59:22.566Z,78.63
2023-01-17T22:01:27.457Z,78.69
2023-01-17T22:03:30.693Z,78.79
2023-01-17T22:05:34.978Z,78.75
2023-01-17T22:07:40.088Z,78.63
2023-01-17T22:09:43.323Z,78.89
2023-01-17T22:11:46.490Z,78.68
2023-01-17T22:13:50.589Z,78.78
2023-01-17T22:15:59.912Z,78.79
2023-01-17T22:18:03.118Z,78.92
2023-01-17T22:20:08.822Z,78.75
2023-01-17T22:22:12.223Z,79.23
2023-01-17T22:24:17.980Z,79.08
2023-01-17T22:26:22.476Z,78.99
2023-01-17T22:28:26.682Z,79.01
2023-01-17T22:30:29.928Z,79.07
2023-01-17T22:32:33.091Z,79.07
2023-01-17T22:34:36.347Z,79.17
2023-01-17T22:36:39.606Z,78.99
2023-01-17T22:38:43.491Z,79.03
2023-01-17T22:40:48.019Z,79.12
2023-01-17T22:42:51.167Z,78.96
2023-01-17T22:44:54.355Z,79.02
2023-01-17T22:46:57.727Z,78.94
2023-01-17T22:49:01.269Z,78.90
2023-01-17T22:51:06.117Z,78.55
2023-01-17T22:53:10.450Z,78.88
2023-01-17T22:55:13.687Z,78.77
2023-01-17T22:57:18.568Z,78.79
2023-01-17T22:59:21.686Z,78.80
2023-01-17T23:01:43.010Z,78.67
2023-01-17T23:03:47.259Z,78.74
2023-01-17T23:05:50.442Z,78.76
2023-01-17T23:07:53.693Z,78.78
2023-01-17T23:09:57.874Z,78.81
2023-01-17T23:12:00.263Z,78.79
2023-01-17T23:14:04.896Z,78.59
2023-01-17T23:16:26.154Z,78.70
2023-01-17T23:18:46.582Z,78.61
2023-01-17T23:20:49.778Z,78.58
2023-01-17T23:22:52.941Z,78.52
2023-01-17T23:24:57.500Z,78.56
2023-01-17T23:27:17.961Z,78.55
2023-01-17T23:29:22.638Z,78.63
2023-01-17T23:31:25.797Z,78.71
2023-01-17T23:33:29.004Z,78.76
2023-01-17T23:35:34.033Z,78.61
2023-01-17T23:37:54.875Z,78.63
2023-01-17T23:39:58.088Z,78.46
2023-01-17T23:42:18.837Z,78.58
2023-01-17T23:44:27.250Z,78.37
2023-01-17T23:46:30.954Z,78.54
2023-01-17T23:48:34.076Z,78.51
2023-01-17T23:50:38.175Z,78.53
2023-01-17T23:52:41.396Z,78.52
2023-01-17T23:54:44.516Z,78.44
2023-01-17T23:56:47.791Z,78.64
2023-01-17T23:58:51.392Z,78.51
